createdAt,value
2023-04-14T00:02:00.912Z,92.34
2023-04-14T00:04:27.720Z,92.22
2023-04-14T00:06:56.979Z,92.05
2023-04-14T00:09:23.377Z,92.16
2023-04-14T00:11:50.769Z,91.55
2023-04-14T00:14:17.225Z,91.98
2023-04-14T00:16:43.959Z,91.95
2023-04-14T00:19:11.089Z,92.16
2023-04-14T00:21:37.457Z,92.07
2023-04-14T00:24:03.877Z,92.27
2023-04-14T00:26:32.678Z,92.66
2023-04-14T00:28:59.269Z,93.25
2023-04-14T00:31:25.932Z,93.31
2023-04-14T00:33:52.277Z,93.36
2023-04-14T00:36:18.699Z,93.98
2023-04-14T00:38:45.050Z,93.60
2023-04-14T00:41:11.409Z,94.18
2023-04-14T00:43:37.947Z,93.91
2023-04-14T00:46:04.307Z,93.98
2023-04-14T00:48:30.726Z,94.04
2023-04-14T00:50:57.200Z,94.21
2023-04-14T00:53:23.934Z,94.51
2023-04-14T00:55:50.692Z,94.00
2023-04-14T00:58:17.323Z,94.10
2023-04-14T01:00:43.955Z,93.98
2023-04-14T01:03:10.582Z,94.16
2023-04-14T01:05:37.119Z,94.39
2023-04-14T01:08:04.170Z,94.20
2023-04-14T01:10:38.166Z,94.23
2023-04-14T01:13:07.519Z,94.26
2023-04-14T01:15:57.505Z,94.38
2023-04-14T01:18:33.016Z,94.32
2023-04-14T01:21:05.501Z,94.26
2023-04-14T01:23:35.597Z,94.91
2023-04-14T01:26:15.588Z,94.93
2023-04-14T01:29:11.275Z,95.16
2023-04-14T01:31:44.585Z,94.95
2023-04-14T01:34:15.658Z,94.62
2023-04-14T01:36:46.322Z,94.48
2023-04-14T01:39:18.391Z,94.61
2023-04-14T01:41:50.632Z,93.99
2023-04-14T01:44:19.213Z,94.44
2023-04-14T01:46:48.011Z,94.03
2023-04-14T01:49:15.999Z,94.03
2023-04-14T01:51:43.963Z,94.50
2023-04-14T01:54:13.118Z,95.08
2023-04-14T01:56:40.975Z,94.88
2023-04-14T01:59:10.314Z,94.41
2023-04-14T02:01:39.029Z,94.76
2023-04-14T02:04:06.601Z,94.43
2023-04-14T02:06:34.685Z,94.58
2023-04-14T02:09:03.705Z,94.12
2023-04-14T02:11:31.416Z,94.04
2023-04-14T02:13:58.925Z,94.98
2023-04-14T02:16:25.946Z,94.76
2023-04-14T02:18:52.399Z,95.40
2023-04-14T02:21:24.170Z,95.04
2023-04-14T02:23:50.996Z,95.19
2023-04-14T02:26:23.951Z,95.10
2023-04-14T02:28:58.458Z,95.25
2023-04-14T02:31:30.119Z,95.46
2023-04-14T02:34:00.676Z,95.21
2023-04-14T02:36:34.177Z,95.13
2023-04-14T02:39:04.545Z,95.03
2023-04-14T02:41:32.832Z,94.94
2023-04-14T02:44:23.116Z,94.80
2023-04-14T02:47:07.586Z,95.36
2023-04-14T02:49:42.677Z,95.43
2023-04-14T02:52:15.365Z,95.43
2023-04-14T02:54:43.848Z,95.54
2023-04-14T02:57:11.013Z,95.97
2023-04-14T02:59:39.006Z,95.95
2023-04-14T03:02:06.275Z,95.95
2023-04-14T03:04:34.620Z,95.83
2023-04-14T03:07:02.663Z,96.11
2023-04-14T03:09:30.511Z,96.04
2023-04-14T03:11:58.359Z,95.62
2023-04-14T03:14:25.836Z,95.35
2023-04-14T03:16:54.325Z,95.39
2023-04-14T03:19:23.097Z,95.47
2023-04-14T03:21:55.253Z,95.83
2023-04-14T03:24:30.630Z,95.61
2023-04-14T03:27:07.065Z,95.81
2023-04-14T03:29:39.125Z,95.94
2023-04-14T03:32:07.040Z,95.75
2023-04-14T03:34:35.632Z,95.55
2023-04-14T03:37:04.302Z,95.76
2023-04-14T03:39:34.525Z,95.40
2023-04-14T03:42:02.613Z,95.15
2023-04-14T03:44:35.564Z,94.65
2023-04-14T03:47:04.015Z,94.62
2023-04-14T03:49:33.283Z,95.14
2023-04-14T03:52:05.316Z,95.42
2023-04-14T03:54:33.830Z,95.42
2023-04-14T03:57:04.620Z,95.72
2023-04-14T03:59:32.269Z,95.56
2023-04-14T04:01:59.238Z,95.70
2023-04-14T04:04:26.884Z,95.82
2023-04-14T04:06:53.846Z,95.79
2023-04-14T04:09:24.409Z,95.68
2023-04-14T04:11:52.511Z,95.78
2023-04-14T04:14:21.276Z,95.33
2023-04-14T04:16:50.120Z,95.33
2023-04-14T04:19:20.389Z,95.07
2023-04-14T04:21:49.369Z,95.30
2023-04-14T04:24:17.970Z,95.02
2023-04-14T04:26:44.350Z,95.07
2023-04-14T04:29:11.270Z,94.74
2023-04-14T04:31:39.732Z,94.65
2023-04-14T04:34:08.093Z,95.06
2023-04-14T04:36:36.705Z,95.60
2023-04-14T04:39:03.605Z,95.29
2023-04-14T04:41:30.663Z,95.70
2023-04-14T04:43:57.337Z,95.46
2023-04-14T04:46:26.602Z,95.24
2023-04-14T04:48:55.396Z,95.28
2023-04-14T04:51:21.768Z,95.25
2023-04-14T04:53:48.129Z,95.38
2023-04-14T04:56:14.520Z,95.37
2023-04-14T04:58:41.623Z,95.52
2023-04-14T05:01:11.129Z,95.76
2023-04-14T05:03:37.757Z,95.90
2023-04-14T05:06:04.402Z,96.06
2023-04-14T05:08:30.915Z,95.89
2023-04-14T05:10:57.517Z,95.77
2023-04-14T05:13:24.015Z,95.85
2023-04-14T05:15:50.343Z,95.69
2023-04-14T05:18:16.706Z,95.75
2023-04-14T05:20:43.153Z,95.71
2023-04-14T05:23:09.443Z,95.73
2023-04-14T05:25:35.972Z,95.45
2023-04-14T05:28:02.430Z,95.68
2023-04-14T05:30:28.836Z,95.73
2023-04-14T05:32:56.373Z,95.74
2023-04-14T05:35:24.892Z,95.95
2023-04-14T05:37:51.283Z,96.18
2023-04-14T05:40:18.046Z,96.41
2023-04-14T05:42:44.435Z,95.94
2023-04-14T05:45:11.423Z,96.12
2023-04-14T05:47:39.499Z,96.60
2023-04-14T05:50:07.652Z,96.64
2023-04-14T05:52:34.118Z,96.92
2023-04-14T05:55:00.951Z,97.20
2023-04-14T05:57:27.274Z,97.04
2023-04-14T05:59:53.676Z,97.51
2023-04-14T06:02:20.185Z,97.43
2023-04-14T06:04:47.418Z,97.60
2023-04-14T06:07:13.896Z,97.58
2023-04-14T06:09:41.220Z,97.77
2023-04-14T06:12:07.608Z,97.66
2023-04-14T06:14:34.080Z,97.90
2023-04-14T06:17:00.952Z,97.37
2023-04-14T06:19:27.450Z,97.56
2023-04-14T06:21:53.764Z,97.61
2023-04-14T06:24:20.100Z,97.39
2023-04-14T06:26:46.522Z,97.32
2023-04-14T06:29:13.190Z,97.11
2023-04-14T06:31:39.741Z,96.98
2023-04-14T06:34:06.314Z,96.57
2023-04-14T06:36:32.802Z,96.73
2023-04-14T06:38:59.441Z,96.68
2023-04-14T06:41:26.254Z,96.38
2023-04-14T06:43:52.631Z,95.54
2023-04-14T06:46:19.049Z,95.71
2023-04-14T06:48:45.750Z,95.50
2023-04-14T06:51:13.526Z,95.16
2023-04-14T06:53:40.266Z,95.08
2023-04-14T06:56:07.346Z,95.41
2023-04-14T06:58:33.758Z,94.51
2023-04-14T07:01:01.854Z,93.42
2023-04-14T07:03:34.314Z,93.06
2023-04-14T07:06:10.166Z,92.48
2023-04-14T07:08:37.360Z,92.17
2023-04-14T07:11:06.995Z,90.72
2023-04-14T07:13:34.178Z,90.07
2023-04-14T07:16:04.104Z,89.63
2023-04-14T07:18:31.738Z,89.75
2023-04-14T07:20:59.610Z,89.52
2023-04-14T07:23:26.286Z,89.23
2023-04-14T07:25:54.649Z,88.61
2023-04-14T07:28:22.025Z,88.01
2023-04-14T07:30:49.536Z,87.27
2023-04-14T07:33:19.922Z,86.09
2023-04-14T07:36:00.573Z,85.29
2023-04-14T07:38:29.101Z,84.98
2023-04-14T07:40:55.558Z,84.58
2023-04-14T07:43:22.139Z,84.29
2023-04-14T07:45:48.659Z,83.36
2023-04-14T07:48:15.148Z,82.90
2023-04-14T07:50:41.468Z,83.28
2023-04-14T07:53:07.880Z,82.81
2023-04-14T07:55:34.209Z,82.60
2023-04-14T07:58:00.790Z,81.89
2023-04-14T08:00:27.703Z,81.58
2023-04-14T08:02:54.355Z,81.60
2023-04-14T08:05:21.319Z,80.96
2023-04-14T08:07:49.423Z,80.46
2023-04-14T08:10:16.086Z,78.95
2023-04-14T08:12:42.427Z,78.10
2023-04-14T08:15:09.616Z,77.11
2023-04-14T08:17:36.108Z,76.47
2023-04-14T08:20:02.637Z,75.61
2023-04-14T08:22:28.960Z,74.95
2023-04-14T08:24:55.848Z,74.68
2023-04-14T08:27:22.281Z,73.74
2023-04-14T08:29:49.043Z,73.38
2023-04-14T08:32:15.642Z,72.16
2023-04-14T08:35:35.739Z,72.26
2023-04-14T08:37:28.637Z,71.46
2023-04-14T08:39:55.143Z,71.41
2023-04-14T08:42:21.865Z,70.67
2023-04-14T08:44:48.948Z,70.11
2023-04-14T08:47:16.176Z,69.63
2023-04-14T08:49:49.741Z,69.42
2023-04-14T08:52:18.601Z,68.55
2023-04-14T08:54:50.061Z,68.63
2023-04-14T08:57:20.172Z,68.01
2023-04-14T08:59:47.744Z,67.77
2023-04-14T09:02:15.691Z,67.77
2023-04-14T09:04:43.290Z,67.75
2023-04-14T09:07:10.057Z,65.59
2023-04-14T09:09:36.661Z,65.15
2023-04-14T09:12:04.008Z,64.66
2023-04-14T09:14:31.001Z,62.09
2023-04-14T09:16:57.383Z,61.45
2023-04-14T09:19:27.204Z,59.60
2023-04-14T09:21:55.319Z,59.55
2023-04-14T09:24:24.902Z,59.60
2023-04-14T09:26:51.956Z,58.77
2023-04-14T09:29:18.677Z,56.88
2023-04-14T09:31:45.796Z,57.87
2023-04-14T09:34:18.133Z,57.27
2023-04-14T09:37:07.881Z,56.02
2023-04-14T09:39:35.820Z,55.23
2023-04-14T09:42:04.064Z,54.36
2023-04-14T09:44:30.934Z,54.81
2023-04-14T09:47:01.296Z,54.08
2023-04-14T09:49:29.082Z,53.46
2023-04-14T09:52:03.809Z,53.00
2023-04-14T09:54:30.277Z,53.22
2023-04-14T09:56:57.613Z,53.39
2023-04-14T09:59:46.566Z,53.74
2023-04-14T10:02:12.906Z,53.63
2023-04-14T10:04:39.416Z,53.85
2023-04-14T10:07:07.991Z,52.81
2023-04-14T10:09:37.833Z,52.85
2023-04-14T10:12:14.521Z,52.57
2023-04-14T10:14:42.326Z,53.10
2023-04-14T10:17:09.716Z,52.48
2023-04-14T10:19:37.721Z,52.74
2023-04-14T10:22:06.051Z,53.24
2023-04-14T10:24:32.929Z,53.31
2023-04-14T10:27:03.400Z,51.46
2023-04-14T10:29:30.980Z,51.31
2023-04-14T10:32:05.993Z,52.23
2023-04-14T10:34:33.794Z,52.41
2023-04-14T10:37:16.461Z,51.37
2023-04-14T10:39:43.085Z,51.18
2023-04-14T10:42:09.748Z,50.94
2023-04-14T10:44:36.641Z,49.51
2023-04-14T10:47:06.901Z,49.47
2023-04-14T10:49:38.235Z,48.19
2023-04-14T10:52:07.094Z,48.01
2023-04-14T10:55:12.844Z,47.67
2023-04-14T10:57:44.479Z,47.81
2023-04-14T11:00:20.185Z,47.14
2023-04-14T11:03:08.198Z,47.50
2023-04-14T11:05:35.593Z,47.80
2023-04-14T11:08:16.654Z,48.05
2023-04-14T11:10:49.154Z,47.35
2023-04-14T11:13:17.577Z,47.42
2023-04-14T11:15:44.722Z,47.29
2023-04-14T11:18:14.453Z,47.11
2023-04-14T11:20:44.289Z,47.15
2023-04-14T11:23:13.176Z,46.60
2023-04-14T11:25:40.375Z,46.03
2023-04-14T11:28:07.300Z,46.06
2023-04-14T11:30:33.733Z,46.03
2023-04-14T11:33:00.306Z,45.50
2023-04-14T11:35:28.144Z,44.80
2023-04-14T11:37:55.815Z,44.60
2023-04-14T11:40:23.756Z,44.96
2023-04-14T11:42:55.504Z,45.20
2023-04-14T11:45:21.983Z,44.83
2023-04-14T11:48:05.679Z,43.33
2023-04-14T11:50:34.055Z,43.48
2023-04-14T11:53:00.875Z,43.93
2023-04-14T11:55:27.973Z,43.06
2023-04-14T11:57:55.609Z,42.14
2023-04-14T12:00:22.128Z,41.52
2023-04-14T12:02:48.869Z,41.43
2023-04-14T12:05:25.955Z,41.34
2023-04-14T12:07:59.124Z,39.79
2023-04-14T12:10:26.525Z,39.30
2023-04-14T12:13:04.519Z,39.35
2023-04-14T12:15:39.359Z,39.04
2023-04-14T12:18:08.766Z,38.99
2023-04-14T12:20:51.910Z,38.75
2023-04-14T12:23:18.381Z,39.33
2023-04-14T12:25:44.757Z,40.27
2023-04-14T12:28:17.632Z,39.98
2023-04-14T12:30:52.182Z,40.18
2023-04-14T12:33:23.644Z,40.31
2023-04-14T12:35:53.651Z,39.12
2023-04-14T12:38:26.884Z,39.72
2023-04-14T12:40:53.303Z,39.44
2023-04-14T12:43:31.738Z,36.63
2023-04-14T12:45:58.767Z,35.64
2023-04-14T12:48:45.261Z,34.76
2023-04-14T12:51:13.462Z,33.79
2023-04-14T12:53:40.969Z,33.81
2023-04-14T12:56:08.352Z,33.84
2023-04-14T12:58:37.795Z,33.79
2023-04-14T13:01:06.610Z,34.59
2023-04-14T13:03:54.352Z,34.30
2023-04-14T13:06:23.002Z,34.48
2023-04-14T13:08:51.816Z,34.82
2023-04-14T13:11:19.947Z,34.54
2023-04-14T13:13:47.174Z,34.24
2023-04-14T13:16:16.780Z,34.79
2023-04-14T13:18:46.579Z,33.83
2023-04-14T13:21:13.246Z,33.08
2023-04-14T13:23:39.927Z,32.81
2023-04-14T13:26:06.354Z,32.64
2023-04-14T13:28:32.849Z,32.72
2023-04-14T13:30:59.187Z,32.45
2023-04-14T13:33:26.543Z,32.49
2023-04-14T13:35:55.411Z,32.58
2023-04-14T13:38:21.861Z,32.31
2023-04-14T13:40:48.475Z,31.66
2023-04-14T13:43:17.569Z,31.58
2023-04-14T13:45:44.211Z,31.36
2023-04-14T13:48:10.592Z,31.05
2023-04-14T13:50:37.235Z,30.93
2023-04-14T13:53:03.690Z,30.98
2023-04-14T13:55:30.355Z,30.79
2023-04-14T13:57:56.840Z,30.82
2023-04-14T14:00:23.212Z,29.75
2023-04-14T14:02:49.965Z,29.70
2023-04-14T14:05:16.583Z,29.60
2023-04-14T14:07:43.234Z,29.12
2023-04-14T14:10:10.650Z,29.19
2023-04-14T14:12:37.731Z,28.74
2023-04-14T14:15:05.560Z,28.92
2023-04-14T14:17:32.259Z,28.99
2023-04-14T14:19:59.173Z,28.40
2023-04-14T14:22:26.281Z,28.39
2023-04-14T14:24:58.572Z,27.98
2023-04-14T14:27:31.610Z,28.24
2023-04-14T14:29:58.039Z,27.94
2023-04-14T14:32:24.428Z,28.01
2023-04-14T14:34:51.004Z,27.49
2023-04-14T14:37:18.261Z,27.83
2023-04-14T14:39:44.895Z,28.55
2023-04-14T14:42:11.506Z,29.01
2023-04-14T14:44:39.013Z,28.69
2023-04-14T14:47:06.396Z,28.53
2023-04-14T14:49:32.957Z,28.76
2023-04-14T14:52:01.752Z,29.12
2023-04-14T14:54:28.111Z,29.43
2023-04-14T14:56:54.548Z,28.77
2023-04-14T14:59:21.033Z,28.72
2023-04-14T15:01:48.626Z,28.33
2023-04-14T15:04:15.209Z,28.11
2023-04-14T15:06:41.774Z,27.68
2023-04-14T15:09:08.202Z,27.71
2023-04-14T15:11:34.652Z,27.21
2023-04-14T15:14:01.558Z,27.16
2023-04-14T15:16:28.290Z,27.13
2023-04-14T15:18:54.769Z,27.25
2023-04-14T15:21:21.405Z,27.63
2023-04-14T15:23:47.818Z,28.06
2023-04-14T15:26:14.264Z,28.26
2023-04-14T15:28:41.110Z,28.28
2023-04-14T15:31:08.354Z,28.46
2023-04-14T15:33:35.111Z,27.76
2023-04-14T15:36:01.568Z,27.97
2023-04-14T15:38:28.010Z,28.15
2023-04-14T15:40:54.522Z,27.84
2023-04-14T15:43:21.484Z,28.12
2023-04-14T15:45:47.953Z,28.14
2023-04-14T15:48:14.489Z,28.09
2023-04-14T15:50:44.645Z,28.25
2023-04-14T15:53:12.142Z,28.29
2023-04-14T15:55:40.186Z,27.83
2023-04-14T15:58:06.766Z,27.55
2023-04-14T16:00:33.764Z,27.21
2023-04-14T16:03:02.143Z,27.13
2023-04-14T16:05:28.755Z,27.37
2023-04-14T16:07:55.556Z,27.17
2023-04-14T16:10:22.439Z,27.44
2023-04-14T16:12:50.461Z,26.62
2023-04-14T16:15:17.368Z,27.07
2023-04-14T16:17:44.605Z,26.64
2023-04-14T16:20:14.991Z,26.60
2023-04-14T16:22:41.354Z,26.30
2023-04-14T16:25:08.282Z,25.93
2023-04-14T16:27:34.727Z,25.70
2023-04-14T16:30:01.802Z,26.26
2023-04-14T16:32:29.839Z,26.82
2023-04-14T16:34:56.604Z,27.43
2023-04-14T16:37:25.947Z,27.64
2023-04-14T16:39:56.175Z,27.88
2023-04-14T16:42:24.319Z,28.26
2023-04-14T16:44:51.896Z,28.37
2023-04-14T16:47:18.956Z,28.76
2023-04-14T16:49:45.569Z,28.86
2023-04-14T16:52:12.355Z,29.02
2023-04-14T16:54:39.700Z,29.20
2023-04-14T16:57:07.147Z,29.72
2023-04-14T16:59:33.551Z,30.12
2023-04-14T17:02:00.211Z,30.04
2023-04-14T17:04:26.720Z,30.18
2023-04-14T17:06:53.330Z,30.45
2023-04-14T17:09:19.839Z,30.70
2023-04-14T17:11:46.173Z,30.93
2023-04-14T17:14:12.557Z,30.82
2023-04-14T17:16:39.693Z,31.12
2023-04-14T17:19:06.087Z,31.13
2023-04-14T17:21:32.452Z,31.52
2023-04-14T17:23:58.918Z,31.36
2023-04-14T17:26:25.312Z,31.30
2023-04-14T17:28:51.649Z,31.36
2023-04-14T17:31:18.098Z,31.70
2023-04-14T17:33:45.259Z,31.76
2023-04-14T17:36:17.376Z,31.85
2023-04-14T17:38:45.619Z,32.09
2023-04-14T17:41:12.918Z,32.43
2023-04-14T17:43:41.250Z,32.21
2023-04-14T17:46:09.171Z,32.56
2023-04-14T17:48:35.561Z,33.18
2023-04-14T17:51:02.850Z,33.06
2023-04-14T17:53:30.261Z,33.39
2023-04-14T17:55:57.568Z,33.83
2023-04-14T17:58:25.196Z,33.67
2023-04-14T18:00:52.149Z,33.66
2023-04-14T18:03:18.643Z,33.96
2023-04-14T18:05:45.290Z,34.26
2023-04-14T18:08:12.012Z,34.15
2023-04-14T18:10:39.156Z,34.21
2023-04-14T18:13:05.653Z,34.73
2023-04-14T18:15:32.232Z,34.86
2023-04-14T18:17:58.614Z,35.36
2023-04-14T18:20:25.622Z,35.63
2023-04-14T18:23:01.851Z,36.55
2023-04-14T18:26:26.230Z,36.96
2023-04-14T18:28:17.008Z,37.37
2023-04-14T18:30:43.592Z,38.17
2023-04-14T18:33:10.007Z,38.65
2023-04-14T18:35:36.483Z,39.77
2023-04-14T18:38:02.923Z,40.01
2023-04-14T18:40:29.531Z,40.61
2023-04-14T18:42:57.411Z,41.14
2023-04-14T18:45:23.782Z,41.41
2023-04-14T18:47:50.706Z,41.74
2023-04-14T18:50:18.218Z,42.50
2023-04-14T18:52:44.611Z,42.63
2023-04-14T18:55:11.018Z,42.73
2023-04-14T18:57:38.169Z,43.12
2023-04-14T19:00:07.023Z,43.42
2023-04-14T19:02:34.356Z,43.36
2023-04-14T19:05:01.311Z,44.32
2023-04-14T19:07:27.726Z,44.92
2023-04-14T19:09:54.092Z,45.13
2023-04-14T19:12:28.220Z,45.99
2023-04-14T19:14:55.413Z,46.82
2023-04-14T19:17:22.121Z,47.09
2023-04-14T19:19:48.945Z,47.40
2023-04-14T19:22:16.030Z,47.68
2023-04-14T19:24:42.635Z,48.31
2023-04-14T19:27:10.219Z,48.36
2023-04-14T19:29:36.662Z,48.56
2023-04-14T19:32:04.537Z,48.21
2023-04-14T19:34:31.479Z,48.53
2023-04-14T19:36:58.217Z,47.62
2023-04-14T19:39:24.717Z,47.77
2023-04-14T19:41:51.218Z,47.25
2023-04-14T19:44:17.587Z,46.94
2023-04-14T19:46:44.142Z,46.65
2023-04-14T19:49:11.627Z,47.02
2023-04-14T19:51:38.230Z,47.28
2023-04-14T19:54:05.603Z,47.52
2023-04-14T19:56:32.801Z,47.84
2023-04-14T19:59:00.023Z,48.04
2023-04-14T20:01:26.891Z,48.19
2023-04-14T20:04:06.618Z,48.62
2023-04-14T20:06:39.483Z,48.96
2023-04-14T20:09:06.420Z,48.99
2023-04-14T20:11:32.764Z,49.02
2023-04-14T20:13:59.351Z,49.38
2023-04-14T20:16:26.496Z,49.51
2023-04-14T20:18:52.948Z,49.53
2023-04-14T20:21:19.583Z,49.63
2023-04-14T20:23:46.111Z,49.43
2023-04-14T20:26:13.288Z,49.59
2023-04-14T20:28:40.461Z,49.71
2023-04-14T20:31:08.749Z,49.90
2023-04-14T20:33:35.897Z,49.90
2023-04-14T20:36:02.413Z,50.08
2023-04-14T20:38:29.193Z,50.11
2023-04-14T20:40:55.652Z,50.30
2023-04-14T20:43:22.338Z,50.39
2023-04-14T20:45:49.791Z,50.40
2023-04-14T20:48:16.530Z,50.81
2023-04-14T20:50:44.442Z,50.68
2023-04-14T20:53:10.968Z,50.92
2023-04-14T20:55:37.473Z,51.52
2023-04-14T20:58:04.114Z,51.74
2023-04-14T21:00:31.908Z,51.87
2023-04-14T21:02:59.813Z,52.15
2023-04-14T21:05:26.856Z,52.35
2023-04-14T21:07:53.265Z,52.64
2023-04-14T21:10:19.578Z,52.83
2023-04-14T21:15:11.400Z,53.15
2023-04-14T21:15:52.721Z,53.37
2023-04-14T21:18:19.577Z,53.35
2023-04-14T21:20:46.288Z,53.76
2023-04-14T21:23:12.602Z,53.88
2023-04-14T21:25:39.194Z,54.24
2023-04-14T21:28:05.770Z,54.02
2023-04-14T21:30:32.077Z,54.17
2023-04-14T21:32:59.192Z,54.40
2023-04-14T21:35:25.867Z,54.54
2023-04-14T21:37:52.418Z,54.98
2023-04-14T21:40:19.157Z,54.92
2023-04-14T21:42:45.856Z,55.42
2023-04-14T21:45:12.188Z,55.92
2023-04-14T21:47:38.735Z,56.20
2023-04-14T21:50:07.229Z,56.05
2023-04-14T21:52:33.563Z,55.89
2023-04-14T21:55:00.002Z,56.06
2023-04-14T21:57:43.726Z,55.92
2023-04-14T22:00:15.459Z,55.71
2023-04-14T22:02:42.922Z,55.73
2023-04-14T22:05:10.053Z,56.58
2023-04-14T22:07:36.500Z,56.13
2023-04-14T22:10:03.912Z,56.47
2023-04-14T22:12:35.838Z,56.95
2023-04-14T22:15:03.914Z,56.98
2023-04-14T22:17:31.046Z,56.96
2023-04-14T22:19:57.650Z,56.72
2023-04-14T22:22:24.345Z,57.65
2023-04-14T22:24:54.038Z,58.02
2023-04-14T22:27:20.903Z,58.42
2023-04-14T22:29:47.294Z,59.14
2023-04-14T22:32:13.611Z,59.09
2023-04-14T22:34:39.985Z,59.43
2023-04-14T22:37:07.356Z,59.70
2023-04-14T22:39:33.832Z,59.64
2023-04-14T22:42:00.582Z,60.15
2023-04-14T22:44:27.205Z,60.37
2023-04-14T22:46:53.660Z,60.65
2023-04-14T22:49:20.019Z,60.83
2023-04-14T22:51:47.146Z,61.98
2023-04-14T22:54:13.483Z,62.50
2023-04-14T22:56:41.050Z,63.32
2023-04-14T22:59:07.477Z,63.99
2023-04-14T23:01:33.834Z,64.43
2023-04-14T23:04:00.526Z,64.31
2023-04-14T23:06:27.045Z,63.92
2023-04-14T23:08:53.414Z,63.83
2023-04-14T23:11:21.011Z,63.72
2023-04-14T23:13:48.393Z,64.00
2023-04-14T23:16:16.764Z,64.17
2023-04-14T23:18:43.441Z,65.03
2023-04-14T23:21:10.015Z,65.51
2023-04-14T23:23:36.596Z,65.97
2023-04-14T23:26:03.094Z,66.53
2023-04-14T23:28:29.394Z,65.94
2023-04-14T23:30:55.849Z,66.23
2023-04-14T23:33:22.589Z,66.13
2023-04-14T23:35:48.974Z,66.91
2023-04-14T23:38:15.326Z,67.67
2023-04-14T23:40:41.779Z,67.89
2023-04-14T23:43:08.216Z,68.07
2023-04-14T23:45:37.598Z,67.99
2023-04-14T23:48:05.511Z,67.78
2023-04-14T23:51:00.141Z,68.18
2023-04-14T23:53:19.994Z,67.93
2023-04-14T23:55:47.461Z,67.94
2023-04-14T23:58:25.991Z,67.87
